createdAt,value
2018-09-26T00:01:40.894Z,1.63
2018-09-26T00:04:43.425Z,1.00
2018-09-26T00:07:12.017Z,0.87
2018-09-26T00:09:40.403Z,1.20
2018-09-26T00:12:08.803Z,0.83
2018-09-26T00:14:37.441Z,0.90
2018-09-26T00:17:06.121Z,1.17
2018-09-26T00:19:34.618Z,1.23
2018-09-26T00:22:03.215Z,1.33
2018-09-26T00:24:31.827Z,1.33
2018-09-26T00:27:00.247Z,1.83
2018-09-26T00:29:28.782Z,1.07
2018-09-26T00:31:57.532Z,1.47
2018-09-26T00:34:25.934Z,1.53
2018-09-26T00:36:54.535Z,0.90
2018-09-26T00:39:22.985Z,1.53
2018-09-26T00:41:51.534Z,0.90
2018-09-26T00:44:20.000Z,1.17
2018-09-26T00:46:48.474Z,2.10
2018-09-26T00:49:16.942Z,1.70
2018-09-26T00:51:45.627Z,1.60
2018-09-26T00:54:14.043Z,1.60
2018-09-26T00:56:42.569Z,1.33
2018-09-26T00:59:11.238Z,1.70
2018-09-26T01:01:39.723Z,1.30
2018-09-26T01:04:08.274Z,1.40
2018-09-26T01:06:36.754Z,1.20
2018-09-26T01:09:07.633Z,1.40
2018-09-26T01:11:36.286Z,1.93
2018-09-26T01:14:04.802Z,1.43
2018-09-26T01:16:33.287Z,1.00
2018-09-26T01:19:02.025Z,1.73
2018-09-26T01:21:30.454Z,1.70
2018-09-26T01:23:58.962Z,1.40
2018-09-26T01:26:27.699Z,1.13
2018-09-26T01:28:56.075Z,1.60
2018-09-26T01:31:24.634Z,1.77
2018-09-26T01:33:53.414Z,1.03
2018-09-26T01:36:21.831Z,0.93
2018-09-26T01:38:50.298Z,2.83
2018-09-26T01:41:18.878Z,1.40
2018-09-26T01:43:47.514Z,1.47
2018-09-26T01:46:15.983Z,1.20
2018-09-26T01:48:44.691Z,1.70
2018-09-26T01:51:13.218Z,1.20
2018-09-26T01:53:41.774Z,1.20
2018-09-26T01:56:10.746Z,1.20
2018-09-26T01:58:39.163Z,1.73
2018-09-26T02:01:07.582Z,1.67
2018-09-26T02:03:36.343Z,1.80
2018-09-26T02:06:04.888Z,1.23
2018-09-26T02:08:33.306Z,1.10
2018-09-26T02:11:01.924Z,0.90
2018-09-26T02:13:30.367Z,1.40
2018-09-26T02:15:58.850Z,1.27
2018-09-26T02:18:27.427Z,1.50
2018-09-26T02:20:55.967Z,1.10
2018-09-26T02:23:24.566Z,1.17
2018-09-26T02:25:53.046Z,1.53
2018-09-26T02:28:21.537Z,1.80
2018-09-26T02:30:49.937Z,1.40
2018-09-26T02:33:18.458Z,1.10
2018-09-26T02:35:46.863Z,1.40
2018-09-26T02:38:15.307Z,0.97
2018-09-26T02:40:43.954Z,1.37
2018-09-26T02:43:12.523Z,1.67
2018-09-26T02:45:40.943Z,0.97
2018-09-26T02:48:09.586Z,1.90
2018-09-26T02:50:38.126Z,1.70
2018-09-26T02:53:06.598Z,1.57
2018-09-26T02:55:35.027Z,1.10
2018-09-26T02:58:03.554Z,1.30
2018-09-26T03:00:32.036Z,1.30
2018-09-26T03:03:00.718Z,0.97
2018-09-26T03:05:29.237Z,2.13
2018-09-26T03:07:57.555Z,1.67
2018-09-26T03:10:25.979Z,1.57
2018-09-26T03:12:54.366Z,1.17
2018-09-26T03:15:22.762Z,1.40
2018-09-26T03:17:51.479Z,2.43
2018-09-26T03:20:19.900Z,1.60
2018-09-26T03:22:48.311Z,1.10
2018-09-26T03:25:16.788Z,1.50
2018-09-26T03:27:45.175Z,1.20
2018-09-26T03:30:13.631Z,1.50
2018-09-26T03:32:42.214Z,1.60
2018-09-26T03:35:10.727Z,1.83
2018-09-26T03:37:39.272Z,2.17
2018-09-26T03:40:07.742Z,1.57
2018-09-26T03:42:36.231Z,1.80
2018-09-26T03:45:05.471Z,1.33
2018-09-26T03:47:34.277Z,1.70
2018-09-26T03:50:02.710Z,1.37
2018-09-26T03:52:31.314Z,1.47
2018-09-26T03:54:59.883Z,2.00
2018-09-26T03:57:28.327Z,1.90
2018-09-26T03:59:56.824Z,1.90
2018-09-26T04:02:25.483Z,3.10
2018-09-26T04:04:54.067Z,1.33
2018-09-26T04:07:22.483Z,1.50
2018-09-26T04:09:51.003Z,1.43
2018-09-26T04:12:19.481Z,1.50
2018-09-26T04:14:47.934Z,1.97
2018-09-26T04:17:16.487Z,1.57
2018-09-26T04:19:45.047Z,1.57
2018-09-26T04:22:13.659Z,1.07
2018-09-26T04:24:42.210Z,1.60
2018-09-26T04:27:10.813Z,1.50
2018-09-26T04:29:39.307Z,1.43
2018-09-26T04:32:08.009Z,1.60
2018-09-26T04:34:36.443Z,2.07
2018-09-26T04:37:04.873Z,2.20
2018-09-26T04:39:33.347Z,1.50
2018-09-26T04:42:01.815Z,1.33
2018-09-26T04:44:30.319Z,1.80
2018-09-26T04:46:58.963Z,1.33
2018-09-26T04:49:27.486Z,1.80
2018-09-26T04:51:56.019Z,2.43
2018-09-26T04:54:24.463Z,1.67
2018-09-26T04:56:52.962Z,1.23
2018-09-26T04:59:21.486Z,2.03
2018-09-26T05:01:50.046Z,0.83
2018-09-26T05:04:18.559Z,1.10
2018-09-26T05:06:46.982Z,1.53
2018-09-26T05:09:15.463Z,1.80
2018-09-26T05:11:43.887Z,2.00
2018-09-26T05:14:12.335Z,2.60
2018-09-26T05:16:41.300Z,2.00
2018-09-26T05:19:09.735Z,1.17
2018-09-26T05:21:38.463Z,1.80
2018-09-26T05:24:07.042Z,1.53
2018-09-26T05:26:35.535Z,1.93
2018-09-26T05:29:04.115Z,1.13
2018-09-26T05:31:32.595Z,1.03
2018-09-26T05:34:01.112Z,2.30
2018-09-26T05:36:29.533Z,2.77
2018-09-26T05:38:58.047Z,2.03
2018-09-26T05:41:26.588Z,2.07
2018-09-26T05:43:54.974Z,2.30
2018-09-26T05:46:23.453Z,2.03
2018-09-26T05:48:51.910Z,1.97
2018-09-26T05:51:20.403Z,2.10
2018-09-26T05:53:48.870Z,2.43
2018-09-26T05:56:17.694Z,1.30
2018-09-26T05:58:46.267Z,1.73
2018-09-26T06:01:14.715Z,1.83
2018-09-26T06:03:43.238Z,1.97
2018-09-26T06:06:11.719Z,2.80
2018-09-26T06:08:40.233Z,1.63
2018-09-26T06:11:08.633Z,1.70
2018-09-26T06:13:37.092Z,1.60
2018-09-26T06:16:05.654Z,1.40
2018-09-26T06:18:34.170Z,1.43
2018-09-26T06:21:02.591Z,1.73
2018-09-26T06:23:31.267Z,3.20
2018-09-26T06:25:59.674Z,2.10
2018-09-26T06:28:28.054Z,3.40
2018-09-26T06:30:56.588Z,2.80
2018-09-26T06:33:24.990Z,2.87
2018-09-26T06:35:53.455Z,2.53
2018-09-26T06:38:22.122Z,2.20
2018-09-26T06:40:50.760Z,2.30
2018-09-26T06:43:19.169Z,2.30
2018-09-26T06:45:47.794Z,2.80
2018-09-26T06:48:16.235Z,4.00
2018-09-26T06:50:44.695Z,2.87
2018-09-26T06:53:13.478Z,3.40
2018-09-26T06:55:42.163Z,2.57
2018-09-26T06:58:10.582Z,2.53
2018-09-26T07:00:39.131Z,2.87
2018-09-26T07:03:07.551Z,2.97
2018-09-26T07:05:35.959Z,2.17
2018-09-26T07:08:04.566Z,2.37
2018-09-26T07:10:32.984Z,2.30
2018-09-26T07:13:01.490Z,2.13
2018-09-26T07:15:29.998Z,2.67
2018-09-26T07:17:58.542Z,3.17
2018-09-26T07:20:27.027Z,2.87
2018-09-26T07:22:55.628Z,3.40
2018-09-26T07:25:24.137Z,2.57
2018-09-26T07:27:52.562Z,2.73
2018-09-26T07:30:21.153Z,2.70
2018-09-26T07:32:49.638Z,4.00
2018-09-26T07:35:18.102Z,3.17
2018-09-26T07:37:46.678Z,2.63
2018-09-26T07:40:15.081Z,3.20
2018-09-26T07:42:43.651Z,2.67
2018-09-26T07:45:12.669Z,3.70
2018-09-26T07:47:41.215Z,3.43
2018-09-26T07:50:09.848Z,2.77
2018-09-26T07:52:38.444Z,2.47
2018-09-26T07:55:07.002Z,2.67
2018-09-26T07:57:36.208Z,2.73
2018-09-26T08:00:05.785Z,2.63
2018-09-26T08:02:34.334Z,3.93
2018-09-26T08:05:02.859Z,3.10
2018-09-26T08:07:31.306Z,3.30
2018-09-26T08:09:59.771Z,3.20
2018-09-26T08:12:28.271Z,3.70
2018-09-26T08:14:57.139Z,3.50
2018-09-26T08:17:25.575Z,3.33
2018-09-26T08:19:54.106Z,3.20
2018-09-26T08:22:22.634Z,3.07
2018-09-26T08:24:51.182Z,3.60
2018-09-26T08:27:19.610Z,3.40
2018-09-26T08:29:48.495Z,2.47
2018-09-26T08:32:17.055Z,3.10
2018-09-26T08:34:45.519Z,2.60
2018-09-26T08:37:14.346Z,2.87
2018-09-26T08:39:42.859Z,3.43
2018-09-26T08:42:11.354Z,3.73
2018-09-26T08:44:39.990Z,3.20
2018-09-26T08:47:08.807Z,3.43
2018-09-26T08:49:37.323Z,2.53
2018-09-26T08:52:05.876Z,3.17
2018-09-26T08:54:34.415Z,3.47
2018-09-26T08:57:02.915Z,3.60
2018-09-26T08:59:31.575Z,3.90
2018-09-26T09:02:00.094Z,3.50
2018-09-26T09:04:28.566Z,4.00
2018-09-26T09:06:57.128Z,3.53
2018-09-26T09:09:25.810Z,3.17
2018-09-26T09:11:54.259Z,4.10
2018-09-26T09:14:22.826Z,3.23
2018-09-26T09:16:51.198Z,3.50
2018-09-26T09:19:19.653Z,4.17
2018-09-26T09:21:48.195Z,3.73
2018-09-26T09:24:16.612Z,3.00
2018-09-26T09:26:45.139Z,2.97
2018-09-26T09:29:13.817Z,3.70
2018-09-26T09:31:42.339Z,3.40
2018-09-26T09:34:10.799Z,4.13
2018-09-26T09:36:39.363Z,3.83
2018-09-26T09:39:09.296Z,3.90
2018-09-26T09:41:37.866Z,3.23
2018-09-26T09:44:06.576Z,3.30
2018-09-26T09:46:34.915Z,4.50
2018-09-26T09:49:03.454Z,3.50
2018-09-26T09:51:32.099Z,3.47
2018-09-26T09:54:00.643Z,3.37
2018-09-26T09:56:29.116Z,3.80
2018-09-26T09:58:57.897Z,3.20
2018-09-26T10:01:27.363Z,2.93
2018-09-26T10:03:56.771Z,3.00
2018-09-26T10:06:25.379Z,3.13
2018-09-26T10:08:54.003Z,2.70
2018-09-26T10:11:22.466Z,2.23
2018-09-26T10:13:51.092Z,3.10
2018-09-26T10:16:19.674Z,2.30
2018-09-26T10:18:48.219Z,2.30
2018-09-26T10:21:16.687Z,3.00
2018-09-26T10:23:45.258Z,1.67
2018-09-26T10:26:13.772Z,1.63
2018-09-26T10:28:42.791Z,1.67
2018-09-26T10:31:11.275Z,2.23
2018-09-26T10:33:39.923Z,2.30
2018-09-26T10:36:08.551Z,1.67
2018-09-26T10:38:36.999Z,2.83
2018-09-26T10:41:05.615Z,2.00
2018-09-26T10:43:34.451Z,1.43
2018-09-26T10:46:03.061Z,2.23
2018-09-26T10:48:31.574Z,1.53
2018-09-26T10:51:00.126Z,2.07
2018-09-26T10:53:28.559Z,1.60
2018-09-26T10:55:57.035Z,2.20
2018-09-26T10:58:25.734Z,1.83
2018-09-26T11:00:54.278Z,1.53
2018-09-26T11:03:22.703Z,1.67
2018-09-26T11:05:51.719Z,2.30
2018-09-26T11:08:20.297Z,1.73
2018-09-26T11:10:48.722Z,2.00
2018-09-26T11:13:17.244Z,1.67
2018-09-26T11:15:45.698Z,1.37
2018-09-26T11:18:14.294Z,1.63
2018-09-26T11:20:42.819Z,1.90
2018-09-26T11:23:11.386Z,1.63
2018-09-26T11:25:40.107Z,1.90
2018-09-26T11:28:08.731Z,1.90
2018-09-26T11:30:37.174Z,1.97
2018-09-26T11:33:05.611Z,1.43
2018-09-26T11:35:34.310Z,2.00
2018-09-26T11:38:02.746Z,1.60
2018-09-26T11:40:31.289Z,2.27
2018-09-26T11:42:59.819Z,1.67
2018-09-26T11:45:28.389Z,1.80
2018-09-26T11:47:56.840Z,2.17
2018-09-26T11:50:25.483Z,1.57
2018-09-26T11:52:53.855Z,1.80
2018-09-26T11:55:22.363Z,1.17
2018-09-26T11:57:51.099Z,1.70
2018-09-26T12:00:19.763Z,1.80
2018-09-26T12:02:48.224Z,2.10
2018-09-26T12:05:16.802Z,2.23
2018-09-26T12:07:45.300Z,1.10
2018-09-26T12:10:14.114Z,1.60
2018-09-26T12:12:42.677Z,1.23
2018-09-26T12:15:11.250Z,1.67
2018-09-26T12:17:39.731Z,2.07
2018-09-26T12:20:08.503Z,1.77
2018-09-26T12:22:36.928Z,2.13
2018-09-26T12:25:05.580Z,2.30
2018-09-26T12:27:34.258Z,2.10
2018-09-26T12:30:02.738Z,1.37
2018-09-26T12:32:31.270Z,2.23
2018-09-26T12:35:00.103Z,1.60
2018-09-26T12:37:28.484Z,1.67
2018-09-26T12:39:56.995Z,1.87
2018-09-26T12:42:25.743Z,1.73
2018-09-26T12:44:54.088Z,1.67
2018-09-26T12:47:22.981Z,1.73
2018-09-26T12:49:51.535Z,1.70
2018-09-26T12:52:20.076Z,1.40
2018-09-26T12:54:48.511Z,2.67
2018-09-26T12:57:17.215Z,1.40
2018-09-26T12:59:45.737Z,1.93
2018-09-26T13:02:14.353Z,1.40
2018-09-26T13:04:42.844Z,2.20
2018-09-26T13:07:11.329Z,1.83
2018-09-26T13:09:39.854Z,1.10
2018-09-26T13:12:08.354Z,1.63
2018-09-26T13:14:36.892Z,1.67
2018-09-26T13:17:05.660Z,1.67
2018-09-26T13:19:34.229Z,1.67
2018-09-26T13:22:02.664Z,1.30
2018-09-26T13:24:31.123Z,1.50
2018-09-26T13:26:59.698Z,1.67
2018-09-26T13:29:28.193Z,2.23
2018-09-26T13:31:56.783Z,1.63
2018-09-26T13:34:25.350Z,2.47
2018-09-26T13:36:53.883Z,1.53
2018-09-26T13:39:22.343Z,2.33
2018-09-26T13:41:51.103Z,1.57
2018-09-26T13:44:19.550Z,1.27
2018-09-26T13:46:48.017Z,1.43
2018-09-26T13:49:16.443Z,1.67
2018-09-26T13:51:44.895Z,1.70
2018-09-26T13:54:13.463Z,2.20
2018-09-26T13:56:42.188Z,1.43
2018-09-26T13:59:10.923Z,1.60
2018-09-26T14:01:39.469Z,1.33
2018-09-26T14:04:07.952Z,1.80
2018-09-26T14:06:36.459Z,1.30
2018-09-26T14:09:06.286Z,1.67
2018-09-26T14:11:36.064Z,1.50
2018-09-26T14:14:04.566Z,1.33
2018-09-26T14:16:32.951Z,1.80
2018-09-26T14:19:01.699Z,2.13
2018-09-26T14:21:30.091Z,1.97
2018-09-26T14:23:58.595Z,1.70
2018-09-26T14:26:27.247Z,1.93
2018-09-26T14:28:56.043Z,1.20
2018-09-26T14:31:24.543Z,2.93
2018-09-26T14:33:53.507Z,1.50
2018-09-26T14:36:22.000Z,1.60
2018-09-26T14:38:50.446Z,2.00
2018-09-26T14:41:19.099Z,1.60
2018-09-26T14:43:47.599Z,2.07
2018-09-26T14:46:16.024Z,1.67
2018-09-26T14:48:44.543Z,0.90
2018-09-26T14:51:12.994Z,1.00
2018-09-26T14:53:41.422Z,1.77
2018-09-26T14:56:10.178Z,1.53
2018-09-26T14:58:38.696Z,1.23
2018-09-26T15:01:07.315Z,1.30
2018-09-26T15:03:35.883Z,1.67
2018-09-26T15:06:04.365Z,1.77
2018-09-26T15:08:32.840Z,1.93
2018-09-26T15:11:01.279Z,1.50
2018-09-26T15:13:29.703Z,1.57
2018-09-26T15:15:58.210Z,1.30
2018-09-26T15:18:26.876Z,1.00
2018-09-26T15:20:55.338Z,1.10
2018-09-26T15:23:23.893Z,1.43
2018-09-26T15:25:52.882Z,1.43
2018-09-26T15:28:21.414Z,1.17
2018-09-26T15:30:49.904Z,1.53
2018-09-26T15:33:18.647Z,1.37
2018-09-26T15:35:47.100Z,1.10
2018-09-26T15:38:15.570Z,2.00
2018-09-26T15:40:44.243Z,1.40
2018-09-26T15:43:12.789Z,1.20
2018-09-26T15:45:41.263Z,1.43
2018-09-26T15:48:09.951Z,1.10
2018-09-26T15:50:38.508Z,1.40
2018-09-26T15:53:06.978Z,1.27
2018-09-26T15:55:35.805Z,1.33
2018-09-26T15:58:04.316Z,1.13
2018-09-26T16:00:32.713Z,1.30
2018-09-26T16:03:01.378Z,2.20
2018-09-26T16:05:29.868Z,1.27
2018-09-26T16:07:58.513Z,1.40
2018-09-26T16:10:27.391Z,0.93
2018-09-26T16:12:55.909Z,1.10
2018-09-26T16:15:24.431Z,1.30
2018-09-26T16:17:53.104Z,1.97
2018-09-26T16:20:21.746Z,1.07
2018-09-26T16:22:50.187Z,1.73
2018-09-26T16:25:19.125Z,1.90
2018-09-26T16:27:47.624Z,1.03
2018-09-26T16:30:16.135Z,1.20
2018-09-26T16:32:44.768Z,1.63
2018-09-26T16:35:13.336Z,1.07
2018-09-26T16:37:41.912Z,0.80
2018-09-26T16:40:10.591Z,1.27
2018-09-26T16:42:39.253Z,1.10
2018-09-26T16:45:08.416Z,1.50
2018-09-26T16:47:37.283Z,1.00
2018-09-26T16:50:05.834Z,1.50
2018-09-26T16:52:34.540Z,1.30
2018-09-26T16:55:03.191Z,1.83
2018-09-26T16:57:31.667Z,1.60
2018-09-26T17:00:00.103Z,1.10
2018-09-26T17:02:28.625Z,1.13
2018-09-26T17:04:57.218Z,0.97
2018-09-26T17:07:25.656Z,1.50
2018-09-26T17:09:54.325Z,0.97
2018-09-26T17:12:22.875Z,0.97
2018-09-26T17:14:51.319Z,1.10
2018-09-26T17:17:20.029Z,0.70
2018-09-26T17:19:48.539Z,1.20
2018-09-26T17:22:17.033Z,1.23
2018-09-26T17:24:45.559Z,1.00
2018-09-26T17:27:14.019Z,0.70
2018-09-26T17:29:42.571Z,1.10
2018-09-26T17:32:11.018Z,0.97
2018-09-26T17:34:39.567Z,0.80
2018-09-26T17:37:08.011Z,0.93
2018-09-26T17:39:36.626Z,1.17
2018-09-26T17:42:05.214Z,1.00
2018-09-26T17:44:35.595Z,1.40
2018-09-26T17:47:04.180Z,1.50
2018-09-26T17:49:32.637Z,1.17
2018-09-26T17:52:01.136Z,1.37
2018-09-26T17:54:29.612Z,1.00
2018-09-26T17:56:58.095Z,0.90
2018-09-26T17:59:26.615Z,1.17
2018-09-26T18:01:55.211Z,1.20
2018-09-26T18:04:23.699Z,1.17
2018-09-26T18:06:52.273Z,1.07
2018-09-26T18:09:20.967Z,0.83
2018-09-26T18:11:49.484Z,0.90
2018-09-26T18:14:17.959Z,1.30
2018-09-26T18:16:47.021Z,1.30
2018-09-26T18:19:15.511Z,1.23
2018-09-26T18:21:44.066Z,0.90
2018-09-26T18:24:13.342Z,0.80
2018-09-26T18:26:41.888Z,0.90
2018-09-26T18:29:10.503Z,2.90
2018-09-26T18:31:39.689Z,1.37
2018-09-26T18:34:08.884Z,0.90
2018-09-26T18:36:38.359Z,0.83
2018-09-26T18:39:09.437Z,1.17
2018-09-26T18:41:38.328Z,0.80
2018-09-26T18:44:07.003Z,1.23
2018-09-26T18:46:35.950Z,0.73
2018-09-26T18:49:04.568Z,1.00
2018-09-26T18:51:33.067Z,1.13
2018-09-26T18:54:01.583Z,1.30
2018-09-26T18:56:30.178Z,1.10
2018-09-26T18:58:58.860Z,0.70
2018-09-26T19:01:27.959Z,1.33
2018-09-26T19:03:57.731Z,1.00
2018-09-26T19:06:26.722Z,0.80
2018-09-26T19:08:55.885Z,0.93
2018-09-26T19:11:24.403Z,1.50
2018-09-26T19:13:53.138Z,1.47
2018-09-26T19:16:21.698Z,0.93
2018-09-26T19:18:50.494Z,0.93
2018-09-26T19:21:20.065Z,0.73
2018-09-26T19:23:49.002Z,0.80
2018-09-26T19:26:18.552Z,1.10
2018-09-26T19:28:47.246Z,1.70
2018-09-26T19:31:16.613Z,1.13
2018-09-26T19:33:45.154Z,1.40
2018-09-26T19:36:13.706Z,0.80
2018-09-26T19:38:42.290Z,1.20
2018-09-26T19:41:11.868Z,0.80
2018-09-26T19:43:41.061Z,1.60
2018-09-26T19:46:09.624Z,1.07
2018-09-26T19:48:39.048Z,1.27
2018-09-26T19:51:08.332Z,1.37
2018-09-26T19:53:37.258Z,1.03
2018-09-26T19:56:05.786Z,1.60
2018-09-26T19:58:35.331Z,1.27
2018-09-26T20:01:05.206Z,1.53
2018-09-26T20:03:33.707Z,1.40
2018-09-26T20:06:05.121Z,0.97
2018-09-26T20:08:33.716Z,0.90
2018-09-26T20:11:02.611Z,1.10
2018-09-26T20:13:31.345Z,1.47
2018-09-26T20:16:01.035Z,0.90
2018-09-26T20:18:29.594Z,1.20
2018-09-26T20:20:58.455Z,1.23
2018-09-26T20:23:27.100Z,1.27
2018-09-26T20:25:55.435Z,0.97
2018-09-26T20:28:23.883Z,1.53
2018-09-26T20:30:52.448Z,1.60
2018-09-26T20:33:20.978Z,1.00
2018-09-26T20:35:49.454Z,1.20
2018-09-26T20:38:17.939Z,1.70
2018-09-26T20:40:46.438Z,1.30
2018-09-26T20:43:14.999Z,1.57
2018-09-26T20:45:43.458Z,1.40
2018-09-26T20:48:11.928Z,1.20
2018-09-26T20:50:40.476Z,2.27
2018-09-26T20:53:08.870Z,1.40
2018-09-26T20:55:37.386Z,2.20
2018-09-26T20:58:06.039Z,1.77
2018-09-26T21:00:34.540Z,1.30
2018-09-26T21:03:04.114Z,1.40
2018-09-26T21:05:33.103Z,1.40
2018-09-26T21:08:01.642Z,1.20
2018-09-26T21:10:30.103Z,1.57
2018-09-26T21:12:58.547Z,2.40
2018-09-26T21:15:26.975Z,1.60
2018-09-26T21:17:55.481Z,1.80
2018-09-26T21:20:23.892Z,1.23
2018-09-26T21:22:52.518Z,1.77
2018-09-26T21:25:21.183Z,0.97
2018-09-26T21:27:49.843Z,1.00
2018-09-26T21:30:18.403Z,1.63
2018-09-26T21:32:46.879Z,2.23
2018-09-26T21:35:15.387Z,1.97
2018-09-26T21:37:43.795Z,1.40
2018-09-26T21:40:12.251Z,1.67
2018-09-26T21:42:40.771Z,1.80
2018-09-26T21:45:09.174Z,2.07
2018-09-26T21:47:37.583Z,2.27
2018-09-26T21:50:06.209Z,2.03
2018-09-26T21:52:34.619Z,1.90
2018-09-26T21:55:03.143Z,1.90
2018-09-26T21:57:31.615Z,1.60
2018-09-26T22:00:00.071Z,1.57
2018-09-26T22:02:28.474Z,1.93
2018-09-26T22:04:57.011Z,2.13
2018-09-26T22:07:25.427Z,2.00
2018-09-26T22:09:53.871Z,1.93
2018-09-26T22:12:22.377Z,2.20
2018-09-26T22:14:50.771Z,2.13
2018-09-26T22:17:19.174Z,1.90
2018-09-26T22:19:47.899Z,1.40
2018-09-26T22:22:16.334Z,1.67
2018-09-26T22:24:44.804Z,2.30
2018-09-26T22:27:13.798Z,1.53
2018-09-26T22:29:42.314Z,2.37
2018-09-26T22:32:10.810Z,1.93
2018-09-26T22:34:39.331Z,1.57
2018-09-26T22:37:07.737Z,1.60
2018-09-26T22:39:36.150Z,1.60
2018-09-26T22:42:04.699Z,2.67
2018-09-26T22:44:33.098Z,2.40
2018-09-26T22:47:01.575Z,2.20
2018-09-26T22:49:30.235Z,2.43
2018-09-26T22:51:58.752Z,3.30
2018-09-26T22:54:27.235Z,2.30
2018-09-26T22:56:55.709Z,2.17
2018-09-26T22:59:24.164Z,2.03
2018-09-26T23:01:52.618Z,1.93
2018-09-26T23:04:21.083Z,2.50
2018-09-26T23:06:49.483Z,2.90
2018-09-26T23:09:18.007Z,2.60
2018-09-26T23:11:46.459Z,2.07
2018-09-26T23:14:14.895Z,1.87
2018-09-26T23:16:43.474Z,2.70
2018-09-26T23:19:11.950Z,2.10
2018-09-26T23:21:40.358Z,1.43
2018-09-26T23:24:08.886Z,2.27
2018-09-26T23:26:37.345Z,2.40
2018-09-26T23:29:05.875Z,2.27
2018-09-26T23:31:34.438Z,2.70
2018-09-26T23:34:03.215Z,2.20
2018-09-26T23:36:31.616Z,3.17
2018-09-26T23:39:00.171Z,1.80
2018-09-26T23:41:28.799Z,2.30
2018-09-26T23:43:57.367Z,1.77
2018-09-26T23:46:25.835Z,2.50
2018-09-26T23:48:54.270Z,2.50
2018-09-26T23:51:22.644Z,2.43
2018-09-26T23:53:51.134Z,2.50
2018-09-26T23:56:19.891Z,2.37
2018-09-26T23:58:48.404Z,2.60
